createdAt,value
2019-03-25T00:01:05.507Z,8.36
2019-03-25T00:03:34.224Z,8.42
2019-03-25T00:06:02.941Z,8.38
2019-03-25T00:08:31.682Z,8.31
2019-03-25T00:11:00.384Z,8.29
2019-03-25T00:13:29.085Z,8.27
2019-03-25T00:15:57.854Z,8.20
2019-03-25T00:18:26.559Z,8.14
2019-03-25T00:20:55.265Z,8.15
2019-03-25T00:23:24.015Z,8.14
2019-03-25T00:25:52.722Z,8.18
2019-03-25T00:28:21.428Z,8.11
2019-03-25T00:30:53.039Z,8.09
2019-03-25T00:33:21.749Z,8.04
2019-03-25T00:35:50.459Z,7.94
2019-03-25T00:38:19.225Z,7.93
2019-03-25T00:40:47.934Z,7.79
2019-03-25T00:43:16.638Z,7.75
2019-03-25T00:45:52.917Z,7.78
2019-03-25T00:48:21.625Z,7.81
2019-03-25T00:50:56.617Z,7.65
2019-03-25T00:53:25.324Z,7.72
2019-03-25T00:55:54.028Z,7.67
2019-03-25T00:58:22.777Z,7.61
2019-03-25T01:00:51.481Z,7.57
2019-03-25T01:03:20.192Z,7.51
2019-03-25T01:05:52.475Z,7.57
2019-03-25T01:08:21.199Z,7.48
2019-03-25T01:10:49.919Z,7.42
2019-03-25T01:13:18.703Z,7.30
2019-03-25T01:15:47.397Z,7.25
2019-03-25T01:18:17.298Z,7.36
2019-03-25T01:20:50.712Z,7.27
2019-03-25T01:23:19.422Z,7.29
2019-03-25T01:25:51.772Z,7.12
2019-03-25T01:28:20.502Z,7.03
2019-03-25T01:30:49.208Z,6.89
2019-03-25T01:33:17.938Z,6.89
2019-03-25T01:35:46.665Z,6.85
2019-03-25T01:38:15.415Z,6.79
2019-03-25T01:40:44.133Z,6.78
2019-03-25T01:43:12.836Z,6.84
2019-03-25T01:45:41.546Z,6.86
2019-03-25T01:48:10.254Z,6.85
2019-03-25T01:50:39.020Z,6.83
2019-03-25T01:53:07.741Z,6.70
2019-03-25T01:55:36.454Z,6.74
2019-03-25T01:58:05.205Z,6.75
2019-03-25T02:00:33.916Z,6.91
2019-03-25T02:03:02.635Z,6.86
2019-03-25T02:05:31.385Z,6.90
2019-03-25T02:08:00.097Z,6.88
2019-03-25T02:10:28.800Z,6.85
2019-03-25T02:12:57.557Z,6.72
2019-03-25T02:15:26.259Z,6.68
2019-03-25T02:17:54.968Z,6.49
2019-03-25T02:20:26.665Z,6.49
2019-03-25T02:22:54.320Z,6.32
2019-03-25T02:25:25.726Z,6.23
2019-03-25T02:27:53.869Z,6.22
2019-03-25T02:30:22.579Z,6.24
2019-03-25T02:32:51.292Z,6.15
2019-03-25T02:35:20.032Z,6.21
2019-03-25T02:37:48.738Z,6.16
2019-03-25T02:40:17.445Z,6.11
2019-03-25T02:42:52.084Z,6.11
2019-03-25T02:45:20.796Z,6.16
2019-03-25T02:47:49.497Z,6.09
2019-03-25T02:50:18.258Z,6.03
2019-03-25T02:52:46.971Z,5.91
2019-03-25T02:55:15.680Z,6.01
2019-03-25T02:57:44.444Z,5.92
2019-03-25T03:00:15.978Z,5.96
2019-03-25T03:02:44.685Z,5.95
2019-03-25T03:05:13.462Z,5.99
2019-03-25T03:07:42.174Z,6.11
2019-03-25T03:10:11.482Z,6.16
2019-03-25T03:12:40.246Z,5.97
2019-03-25T03:15:08.954Z,5.99
2019-03-25T03:17:37.662Z,5.99
2019-03-25T03:20:08.013Z,5.84
2019-03-25T03:22:36.721Z,5.68
2019-03-25T03:25:05.725Z,5.59
2019-03-25T03:27:34.470Z,5.61
2019-03-25T03:30:03.203Z,5.59
2019-03-25T03:32:31.914Z,5.57
2019-03-25T03:35:01.109Z,5.69
2019-03-25T03:37:30.023Z,5.65
2019-03-25T03:39:58.738Z,5.71
2019-03-25T03:42:27.494Z,5.68
2019-03-25T03:44:56.192Z,5.72
2019-03-25T03:47:24.909Z,5.73
2019-03-25T03:49:53.665Z,5.70
2019-03-25T03:52:22.378Z,5.61
2019-03-25T03:54:55.021Z,5.51
2019-03-25T03:57:24.898Z,5.58
2019-03-25T03:59:53.623Z,5.57
2019-03-25T04:02:22.320Z,5.50
2019-03-25T04:04:52.081Z,5.43
2019-03-25T04:07:20.783Z,5.41
2019-03-25T04:09:49.491Z,5.36
2019-03-25T04:12:18.342Z,5.33
2019-03-25T04:14:47.121Z,5.42
2019-03-25T04:17:15.835Z,5.46
2019-03-25T04:19:44.610Z,5.43
2019-03-25T04:22:13.306Z,5.44
2019-03-25T04:24:42.048Z,5.52
2019-03-25T04:27:10.799Z,5.62
2019-03-25T04:29:39.514Z,5.68
2019-03-25T04:32:08.231Z,5.79
2019-03-25T04:34:37.029Z,5.88
2019-03-25T04:37:05.770Z,5.86
2019-03-25T04:39:34.492Z,5.79
2019-03-25T04:42:04.246Z,5.62
2019-03-25T04:44:33.394Z,5.60
2019-03-25T04:47:02.124Z,5.66
2019-03-25T04:49:30.870Z,5.63
2019-03-25T04:51:59.577Z,5.70
2019-03-25T04:54:28.314Z,5.77
2019-03-25T04:56:57.402Z,5.89
2019-03-25T04:59:26.134Z,5.96
2019-03-25T05:01:54.973Z,6.01
2019-03-25T05:04:23.684Z,6.10
2019-03-25T05:06:52.397Z,6.25
2019-03-25T05:09:21.110Z,6.32
2019-03-25T05:11:55.962Z,6.57
2019-03-25T05:14:24.672Z,6.85
2019-03-25T05:16:53.375Z,7.53
2019-03-25T05:19:22.143Z,8.37
2019-03-25T05:21:50.840Z,9.27
2019-03-25T05:24:19.558Z,10.04
2019-03-25T05:26:54.833Z,10.56
2019-03-25T05:29:23.554Z,11.29
2019-03-25T05:31:52.266Z,11.68
2019-03-25T05:34:21.017Z,11.96
2019-03-25T05:36:49.725Z,12.41
2019-03-25T05:39:18.437Z,12.31
2019-03-25T05:41:56.018Z,11.65
2019-03-25T05:44:24.730Z,11.07
2019-03-25T05:46:53.454Z,10.56
2019-03-25T05:49:22.214Z,9.98
2019-03-25T05:51:50.940Z,9.21
2019-03-25T05:54:19.658Z,8.87
2019-03-25T05:57:02.774Z,8.75
2019-03-25T05:59:28.936Z,8.63
2019-03-25T06:01:59.159Z,8.62
2019-03-25T06:04:27.928Z,8.55
2019-03-25T06:06:56.641Z,8.49
2019-03-25T06:09:25.352Z,8.42
2019-03-25T06:11:54.611Z,8.37
2019-03-25T06:14:23.316Z,8.34
2019-03-25T06:16:52.028Z,8.23
2019-03-25T06:19:20.789Z,8.32
2019-03-25T06:21:49.497Z,8.45
2019-03-25T06:24:18.208Z,8.45
2019-03-25T06:26:52.161Z,8.49
2019-03-25T06:29:20.868Z,8.53
2019-03-25T06:31:49.573Z,8.49
2019-03-25T06:34:18.337Z,8.53
2019-03-25T06:36:47.030Z,8.56
2019-03-25T06:39:15.745Z,8.56
2019-03-25T06:41:44.504Z,8.53
2019-03-25T06:44:13.204Z,8.56
2019-03-25T06:46:41.913Z,8.67
2019-03-25T06:49:10.667Z,8.73
2019-03-25T06:51:39.370Z,8.85
2019-03-25T06:54:08.075Z,8.93
2019-03-25T06:56:36.819Z,9.05
2019-03-25T06:59:05.522Z,9.08
2019-03-25T07:01:34.233Z,9.16
2019-03-25T07:04:02.984Z,9.15
2019-03-25T07:06:31.697Z,9.34
2019-03-25T07:09:00.400Z,9.40
2019-03-25T07:11:29.150Z,9.62
2019-03-25T07:13:58.065Z,9.72
2019-03-25T07:16:26.773Z,9.73
2019-03-25T07:18:55.520Z,9.73
2019-03-25T07:21:24.229Z,9.87
2019-03-25T07:23:52.939Z,9.96
2019-03-25T07:26:21.657Z,10.08
2019-03-25T07:28:50.368Z,10.02
2019-03-25T07:31:19.122Z,10.03
2019-03-25T07:33:47.828Z,10.23
2019-03-25T07:36:16.543Z,10.43
2019-03-25T07:38:53.571Z,10.53
2019-03-25T07:41:22.281Z,10.26
2019-03-25T07:43:54.329Z,10.38
2019-03-25T07:46:23.046Z,10.55
2019-03-25T07:48:53.725Z,10.68
2019-03-25T07:51:22.439Z,10.55
2019-03-25T07:53:51.202Z,10.58
2019-03-25T07:56:19.927Z,10.70
2019-03-25T07:58:48.634Z,11.00
2019-03-25T08:01:17.348Z,10.98
2019-03-25T08:03:53.635Z,11.12
2019-03-25T08:06:22.324Z,11.15
2019-03-25T08:08:51.058Z,11.13
2019-03-25T08:11:19.757Z,10.93
2019-03-25T08:13:48.498Z,10.76
2019-03-25T08:16:17.239Z,10.93
2019-03-25T08:18:45.945Z,11.12
2019-03-25T08:21:14.665Z,11.29
2019-03-25T08:23:43.379Z,11.48
2019-03-25T08:26:12.098Z,11.44
2019-03-25T08:28:40.845Z,11.53
2019-03-25T08:31:09.566Z,11.54
2019-03-25T08:33:38.285Z,11.70
2019-03-25T08:36:07.002Z,11.61
2019-03-25T08:38:35.715Z,11.53
2019-03-25T08:41:04.459Z,11.87
2019-03-25T08:43:33.181Z,11.81
2019-03-25T08:46:01.889Z,11.69
2019-03-25T08:48:30.614Z,11.95
2019-03-25T08:50:59.330Z,12.03
2019-03-25T08:53:28.090Z,12.36
2019-03-25T08:55:56.810Z,12.39
2019-03-25T08:58:25.519Z,12.14
2019-03-25T09:00:54.234Z,12.33
2019-03-25T09:03:22.942Z,12.39
2019-03-25T09:05:52.242Z,12.38
2019-03-25T09:08:20.952Z,12.58
2019-03-25T09:10:49.671Z,12.64
2019-03-25T09:13:18.455Z,12.73
2019-03-25T09:15:47.162Z,13.00
2019-03-25T09:18:15.892Z,12.85
2019-03-25T09:20:44.686Z,12.98
2019-03-25T09:23:13.451Z,13.25
2019-03-25T09:25:42.134Z,13.17
2019-03-25T09:28:10.914Z,13.49
2019-03-25T09:30:54.711Z,13.53
2019-03-25T09:33:23.766Z,13.39
2019-03-25T09:35:52.599Z,13.52
2019-03-25T09:38:21.308Z,13.57
2019-03-25T09:40:52.967Z,13.72
2019-03-25T09:43:21.669Z,13.77
2019-03-25T09:45:50.385Z,13.71
2019-03-25T09:48:19.146Z,13.76
2019-03-25T09:50:48.169Z,13.88
2019-03-25T09:53:16.874Z,14.22
2019-03-25T09:55:55.516Z,14.09
2019-03-25T09:58:35.393Z,14.15
2019-03-25T10:00:54.657Z,14.16
2019-03-25T10:03:23.377Z,14.32
2019-03-25T10:05:52.091Z,14.33
2019-03-25T10:08:20.857Z,14.32
2019-03-25T10:10:49.573Z,14.77
2019-03-25T10:13:18.290Z,14.69
2019-03-25T10:15:52.987Z,14.69
2019-03-25T10:18:21.701Z,14.85
2019-03-25T10:20:53.131Z,15.02
2019-03-25T10:23:21.848Z,14.92
2019-03-25T10:25:50.572Z,15.03
2019-03-25T10:28:19.334Z,15.15
2019-03-25T10:30:48.158Z,15.25
2019-03-25T10:33:16.875Z,15.09
2019-03-25T10:35:52.292Z,15.20
2019-03-25T10:38:21.711Z,15.29
2019-03-25T10:40:50.415Z,15.50
2019-03-25T10:43:19.168Z,15.55
2019-03-25T10:45:47.877Z,15.55
2019-03-25T10:48:16.592Z,15.73
2019-03-25T10:50:51.181Z,15.50
2019-03-25T10:53:19.886Z,15.72
2019-03-25T10:55:48.605Z,15.64
2019-03-25T10:58:17.374Z,15.85
2019-03-25T11:00:46.098Z,16.05
2019-03-25T11:03:14.813Z,16.06
2019-03-25T11:05:43.613Z,16.23
2019-03-25T11:08:12.289Z,16.22
2019-03-25T11:10:41.020Z,16.32
2019-03-25T11:13:09.743Z,16.32
2019-03-25T11:15:38.454Z,16.21
2019-03-25T11:18:07.214Z,16.46
2019-03-25T11:20:35.933Z,16.62
2019-03-25T11:23:04.640Z,16.64
2019-03-25T11:25:33.357Z,16.92
2019-03-25T11:28:02.081Z,16.65
2019-03-25T11:30:54.632Z,16.94
2019-03-25T11:33:23.437Z,17.01
2019-03-25T11:35:52.243Z,17.05
2019-03-25T11:38:20.993Z,17.15
2019-03-25T11:40:49.803Z,17.29
2019-03-25T11:43:18.530Z,17.25
2019-03-25T11:45:52.404Z,17.55
2019-03-25T11:48:21.131Z,17.57
2019-03-25T11:50:53.734Z,17.60
2019-03-25T11:53:22.458Z,17.85
2019-03-25T11:55:51.179Z,17.80
2019-03-25T11:58:19.901Z,17.93
2019-03-25T12:00:56.145Z,18.04
2019-03-25T12:03:24.907Z,18.23
2019-03-25T12:05:54.679Z,18.45
2019-03-25T12:08:23.403Z,18.37
2019-03-25T12:10:54.581Z,18.43
2019-03-25T12:13:23.303Z,18.62
2019-03-25T12:15:53.801Z,18.71
2019-03-25T12:18:22.522Z,18.76
2019-03-25T12:20:51.232Z,18.73
2019-03-25T12:23:26.399Z,18.69
2019-03-25T12:25:50.450Z,18.63
2019-03-25T12:28:20.695Z,18.84
2019-03-25T12:30:53.906Z,18.77
2019-03-25T12:33:22.613Z,18.80
2019-03-25T12:35:51.329Z,18.93
2019-03-25T12:38:20.050Z,19.13
2019-03-25T12:40:48.761Z,18.95
2019-03-25T12:43:17.534Z,18.91
2019-03-25T12:45:46.246Z,19.14
2019-03-25T12:48:14.958Z,19.30
2019-03-25T12:50:43.759Z,19.33
2019-03-25T12:53:12.467Z,19.43
2019-03-25T12:55:41.191Z,19.48
2019-03-25T12:58:09.942Z,19.48
2019-03-25T13:00:43.473Z,19.58
2019-03-25T13:03:12.188Z,19.67
2019-03-25T13:05:40.941Z,19.74
2019-03-25T13:08:09.752Z,19.83
2019-03-25T13:10:38.472Z,19.78
2019-03-25T13:13:07.288Z,19.79
2019-03-25T13:15:36.006Z,19.82
2019-03-25T13:18:04.874Z,19.66
2019-03-25T13:20:33.578Z,19.59
2019-03-25T13:23:02.320Z,19.75
2019-03-25T13:25:31.036Z,19.82
2019-03-25T13:27:59.790Z,19.80
2019-03-25T13:30:28.544Z,19.92
2019-03-25T13:32:57.264Z,19.85
2019-03-25T13:35:25.981Z,19.77
2019-03-25T13:37:54.742Z,19.91
2019-03-25T13:40:23.465Z,20.13
2019-03-25T13:42:52.177Z,20.13
2019-03-25T13:45:20.930Z,20.11
2019-03-25T13:47:49.647Z,20.15
2019-03-25T13:50:20.209Z,20.09
2019-03-25T13:52:53.738Z,20.19
2019-03-25T13:55:22.460Z,20.31
2019-03-25T13:57:55.745Z,20.36
2019-03-25T14:00:35.921Z,20.23
2019-03-25T14:03:04.693Z,20.40
2019-03-25T14:05:33.456Z,20.38
2019-03-25T14:08:02.174Z,20.41
2019-03-25T14:10:30.896Z,20.31
2019-03-25T14:12:59.606Z,20.30
2019-03-25T14:15:28.358Z,20.38
2019-03-25T14:17:57.078Z,20.48
2019-03-25T14:20:25.812Z,20.43
2019-03-25T14:22:54.515Z,20.43
2019-03-25T14:25:23.233Z,20.49
2019-03-25T14:27:54.072Z,20.48
2019-03-25T14:30:22.900Z,20.46
2019-03-25T14:32:51.595Z,20.51
2019-03-25T14:35:20.365Z,20.63
2019-03-25T14:37:49.075Z,20.51
2019-03-25T14:40:17.790Z,20.63
2019-03-25T14:42:54.486Z,20.66
2019-03-25T14:45:26.655Z,20.68
2019-03-25T14:47:53.634Z,20.64
2019-03-25T14:50:22.410Z,20.51
2019-03-25T14:52:51.129Z,20.54
2019-03-25T14:55:19.843Z,20.50
2019-03-25T14:57:55.237Z,20.48
2019-03-25T15:00:25.543Z,20.56
2019-03-25T15:02:54.553Z,20.46
2019-03-25T15:05:23.319Z,20.42
2019-03-25T15:07:53.584Z,20.34
2019-03-25T15:10:22.287Z,20.34
2019-03-25T15:12:52.614Z,20.38
2019-03-25T15:15:21.318Z,20.36
2019-03-25T15:17:50.033Z,20.32
2019-03-25T15:20:18.814Z,20.37
2019-03-25T15:22:47.519Z,20.32
2019-03-25T15:25:16.221Z,20.24
2019-03-25T15:27:44.974Z,20.33
2019-03-25T15:30:14.188Z,20.22
2019-03-25T15:32:43.302Z,20.17
2019-03-25T15:35:12.659Z,20.13
2019-03-25T15:37:41.365Z,20.20
2019-03-25T15:40:11.926Z,20.01
2019-03-25T15:42:40.719Z,20.07
2019-03-25T15:45:10.537Z,19.98
2019-03-25T15:47:40.001Z,19.86
2019-03-25T15:50:10.391Z,19.85
2019-03-25T15:52:39.917Z,19.74
2019-03-25T15:55:09.238Z,19.67
2019-03-25T15:57:39.731Z,19.66
2019-03-25T16:00:14.483Z,19.50
2019-03-25T16:02:43.236Z,19.40
2019-03-25T16:05:12.065Z,19.30
2019-03-25T16:07:40.783Z,19.20
2019-03-25T16:10:09.639Z,19.07
2019-03-25T16:12:38.356Z,19.03
2019-03-25T16:15:07.678Z,18.89
2019-03-25T16:17:38.228Z,18.83
2019-03-25T16:20:10.668Z,18.73
2019-03-25T16:22:39.383Z,18.70
2019-03-25T16:25:08.753Z,18.67
2019-03-25T16:27:37.464Z,18.61
2019-03-25T16:30:08.078Z,18.52
2019-03-25T16:32:36.829Z,18.44
2019-03-25T16:35:06.757Z,18.40
2019-03-25T16:37:35.465Z,18.28
2019-03-25T16:40:05.744Z,18.16
2019-03-25T16:42:34.462Z,18.02
2019-03-25T16:45:03.170Z,17.93
2019-03-25T16:47:31.941Z,17.78
2019-03-25T16:50:00.666Z,17.68
2019-03-25T16:52:29.371Z,17.66
2019-03-25T16:54:58.143Z,17.70
2019-03-25T16:57:26.859Z,17.66
2019-03-25T16:59:57.111Z,17.64
2019-03-25T17:02:25.829Z,17.49
2019-03-25T17:04:54.551Z,17.42
2019-03-25T17:07:23.307Z,17.30
2019-03-25T17:09:58.207Z,17.21
2019-03-25T17:12:26.930Z,17.10
2019-03-25T17:14:55.649Z,16.99
2019-03-25T17:17:24.407Z,16.79
2019-03-25T17:19:53.331Z,16.60
2019-03-25T17:22:22.051Z,16.61
2019-03-25T17:24:50.769Z,16.67
2019-03-25T17:27:19.534Z,16.80
2019-03-25T17:29:48.248Z,16.68
2019-03-25T17:32:16.978Z,16.57
2019-03-25T17:34:53.386Z,16.45
2019-03-25T17:37:22.102Z,16.27
2019-03-25T17:39:53.338Z,16.25
2019-03-25T17:42:22.061Z,16.24
2019-03-25T17:44:50.774Z,16.13
2019-03-25T17:47:19.530Z,16.00
2019-03-25T17:49:48.251Z,15.85
2019-03-25T17:52:16.958Z,15.61
2019-03-25T17:54:53.395Z,15.50
2019-03-25T17:57:22.142Z,15.34
2019-03-25T17:59:57.793Z,15.25
2019-03-25T18:02:26.514Z,15.09
2019-03-25T18:04:55.235Z,14.96
2019-03-25T18:07:23.967Z,14.92
2019-03-25T18:09:55.539Z,14.94
2019-03-25T18:12:24.291Z,14.83
2019-03-25T18:14:53.014Z,14.86
2019-03-25T18:17:21.732Z,14.75
2019-03-25T18:19:53.392Z,14.69
2019-03-25T18:22:22.106Z,14.71
2019-03-25T18:24:50.818Z,14.72
2019-03-25T18:27:19.537Z,14.63
2019-03-25T18:29:54.312Z,14.60
2019-03-25T18:32:23.062Z,14.61
2019-03-25T18:34:51.769Z,14.55
2019-03-25T18:37:20.476Z,14.53
2019-03-25T18:39:55.404Z,14.44
2019-03-25T18:42:24.123Z,14.33
2019-03-25T18:44:52.843Z,14.25
2019-03-25T18:47:21.563Z,14.11
2019-03-25T18:49:50.276Z,14.10
2019-03-25T18:52:19.048Z,14.02
2019-03-25T18:54:47.764Z,13.85
2019-03-25T18:57:16.472Z,13.82
2019-03-25T18:59:45.255Z,13.80
2019-03-25T19:02:13.979Z,13.74
2019-03-25T19:04:42.978Z,13.60
2019-03-25T19:07:11.755Z,13.54
2019-03-25T19:09:40.481Z,13.60
2019-03-25T19:12:09.183Z,13.57
2019-03-25T19:14:37.974Z,13.48
2019-03-25T19:17:06.693Z,13.48
2019-03-25T19:19:35.414Z,13.24
2019-03-25T19:22:05.334Z,13.18
2019-03-25T19:24:34.344Z,13.14
2019-03-25T19:27:03.048Z,13.06
2019-03-25T19:29:31.810Z,13.00
2019-03-25T19:32:06.624Z,13.03
2019-03-25T19:34:30.991Z,13.03
2019-03-25T19:36:59.772Z,12.86
2019-03-25T19:39:28.504Z,12.84
2019-03-25T19:41:57.244Z,12.86
2019-03-25T19:44:25.950Z,12.67
2019-03-25T19:46:54.781Z,12.54
2019-03-25T19:49:23.490Z,12.58
2019-03-25T19:51:56.865Z,12.59
2019-03-25T19:54:25.584Z,12.54
2019-03-25T19:56:54.303Z,12.62
2019-03-25T19:59:23.061Z,12.56
2019-03-25T20:01:57.923Z,12.61
2019-03-25T20:04:26.648Z,12.36
2019-03-25T20:06:57.603Z,12.39
2019-03-25T20:09:26.323Z,12.36
2019-03-25T20:11:57.997Z,12.41
2019-03-25T20:14:26.757Z,12.39
2019-03-25T20:16:55.532Z,12.38
2019-03-25T20:19:24.296Z,12.36
2019-03-25T20:21:55.571Z,12.35
2019-03-25T20:24:24.330Z,12.37
2019-03-25T20:26:53.116Z,12.48
2019-03-25T20:29:21.896Z,12.32
2019-03-25T20:31:50.674Z,11.96
2019-03-25T20:34:19.472Z,11.86
2019-03-25T20:36:56.262Z,11.96
2019-03-25T20:39:25.004Z,11.94
2019-03-25T20:41:53.894Z,11.95
2019-03-25T20:44:22.659Z,11.95
2019-03-25T20:46:51.408Z,11.85
2019-03-25T20:49:20.156Z,11.88
2019-03-25T20:51:56.257Z,11.94
2019-03-25T20:54:25.006Z,11.98
2019-03-25T20:56:58.332Z,12.11
2019-03-25T20:59:27.099Z,12.21
2019-03-25T21:01:55.818Z,12.16
2019-03-25T21:04:24.558Z,12.12
2019-03-25T21:06:54.605Z,12.11
2019-03-25T21:09:23.741Z,12.21
2019-03-25T21:11:52.584Z,12.25
2019-03-25T21:14:21.364Z,12.27
2019-03-25T21:16:50.066Z,12.23
2019-03-25T21:19:18.840Z,12.16
2019-03-25T21:21:47.582Z,12.17
2019-03-25T21:24:16.265Z,12.07
2019-03-25T21:26:45.068Z,12.02
2019-03-25T21:29:13.799Z,11.90
2019-03-25T21:31:42.545Z,11.77
2019-03-25T21:34:11.267Z,11.52
2019-03-25T21:36:40.095Z,11.50
2019-03-25T21:39:08.776Z,11.57
2019-03-25T21:41:37.561Z,11.58
2019-03-25T21:44:06.318Z,11.57
2019-03-25T21:46:35.052Z,11.39
2019-03-25T21:49:03.773Z,11.25
2019-03-25T21:51:32.504Z,11.14
2019-03-25T21:54:01.394Z,11.20
2019-03-25T21:56:30.101Z,11.21
2019-03-25T21:59:00.425Z,11.02
2019-03-25T22:01:29.341Z,11.07
2019-03-25T22:03:58.065Z,11.04
2019-03-25T22:06:26.775Z,11.02
2019-03-25T22:08:55.492Z,10.99
2019-03-25T22:11:24.212Z,10.94
2019-03-25T22:13:55.227Z,10.94
2019-03-25T22:16:23.974Z,10.99
2019-03-25T22:18:52.690Z,10.87
2019-03-25T22:21:21.398Z,10.94
2019-03-25T22:23:54.307Z,10.86
2019-03-25T22:26:23.012Z,10.80
2019-03-25T22:28:55.060Z,10.86
2019-03-25T22:31:23.768Z,10.84
2019-03-25T22:33:52.472Z,10.80
2019-03-25T22:36:21.215Z,10.85
2019-03-25T22:38:49.923Z,10.87
2019-03-25T22:41:18.669Z,10.77
2019-03-25T22:43:47.377Z,10.71
2019-03-25T22:46:16.082Z,10.61
2019-03-25T22:48:44.834Z,10.61
2019-03-25T22:51:13.535Z,10.51
2019-03-25T22:53:42.240Z,10.38
2019-03-25T22:56:11.036Z,10.35
2019-03-25T22:58:39.742Z,10.39
2019-03-25T23:01:08.496Z,10.38
2019-03-25T23:03:39.412Z,10.40
2019-03-25T23:06:07.645Z,10.38
2019-03-25T23:08:36.400Z,10.28
2019-03-25T23:11:05.214Z,10.40
2019-03-25T23:13:33.922Z,10.23
2019-03-25T23:16:02.665Z,10.28
2019-03-25T23:18:31.371Z,10.34
2019-03-25T23:21:00.157Z,10.36
2019-03-25T23:23:28.929Z,10.44
2019-03-25T23:25:57.644Z,10.32
2019-03-25T23:28:26.355Z,10.12
2019-03-25T23:30:55.109Z,10.05
2019-03-25T23:33:23.813Z,10.13
2019-03-25T23:35:52.620Z,10.13
2019-03-25T23:38:21.366Z,10.13
2019-03-25T23:40:50.080Z,10.19
2019-03-25T23:43:18.789Z,10.18
2019-03-25T23:45:53.818Z,10.13
2019-03-25T23:48:22.525Z,10.15
2019-03-25T23:50:51.232Z,10.12
2019-03-25T23:53:19.989Z,10.15
2019-03-25T23:55:48.708Z,10.21
2019-03-25T23:58:17.417Z,10.07
